sensor_id;sensor_type;location;lat;lon;timestamp;pressure;altitude;pressure_sealevel;temperature;humidity
44441;BME280;30146;52.268;20.944;2022-07-19T00:01:37;100888.84;;;20.13;53.92
44441;BME280;30146;52.268;20.944;2022-07-19T00:04:09;100886.22;;;20.14;53.88
44441;BME280;30146;52.268;20.944;2022-07-19T00:06:40;100888.31;;;20.13;53.89
44441;BME280;30146;52.268;20.944;2022-07-19T00:09:11;100890.20;;;20.14;54.09
44441;BME280;30146;52.268;20.944;2022-07-19T00:11:44;100885.20;;;20.13;54.13
44441;BME280;30146;52.268;20.944;2022-07-19T00:14:16;100884.32;;;20.13;54.29
44441;BME280;30146;52.268;20.944;2022-07-19T00:16:47;100882.77;;;20.13;54.27
44441;BME280;30146;52.268;20.944;2022-07-19T00:19:20;100887.83;;;20.13;54.32
44441;BME280;30146;52.268;20.944;2022-07-19T00:21:51;100885.41;;;20.12;54.10
44441;BME280;30146;52.268;20.944;2022-07-19T00:24:22;100880.02;;;20.12;54.41
44441;BME280;30146;52.268;20.944;2022-07-19T00:26:53;100877.60;;;20.12;54.30
44441;BME280;30146;52.268;20.944;2022-07-19T00:29:24;100876.20;;;20.13;54.59
44441;BME280;30146;52.268;20.944;2022-07-19T00:31:56;100879.98;;;20.13;54.63
44441;BME280;30146;52.268;20.944;2022-07-19T00:34:27;100878.73;;;20.14;54.79
44441;BME280;30146;52.268;20.944;2022-07-19T00:36:58;100877.80;;;20.16;54.82
44441;BME280;30146;52.268;20.944;2022-07-19T00:39:29;100878.29;;;20.17;54.88
44441;BME280;30146;52.268;20.944;2022-07-19T00:42:01;100877.76;;;20.16;55.10
44441;BME280;30146;52.268;20.944;2022-07-19T00:44:32;100875.86;;;20.16;55.29
44441;BME280;30146;52.268;20.944;2022-07-19T00:47:04;100876.74;;;20.16;55.19
44441;BME280;30146;52.268;20.944;2022-07-19T00:49:37;100877.11;;;20.16;55.10
44441;BME280;30146;52.268;20.944;2022-07-19T00:52:08;100874.05;;;20.14;55.31
44441;BME280;30146;52.268;20.944;2022-07-19T00:54:41;100874.45;;;20.13;55.29
44441;BME280;30146;52.268;20.944;2022-07-19T00:57:13;100867.93;;;20.11;55.44
44441;BME280;30146;52.268;20.944;2022-07-19T00:59:45;100869.91;;;20.09;55.40
44441;BME280;30146;52.268;20.944;2022-07-19T01:02:19;100868.17;;;20.10;55.45
44441;BME280;30146;52.268;20.944;2022-07-19T01:04:51;100869.25;;;20.09;55.46
44441;BME280;30146;52.268;20.944;2022-07-19T01:07:26;100864.59;;;20.08;55.33
44441;BME280;30146;52.268;20.944;2022-07-19T01:09:57;100866.86;;;20.07;55.46
44441;BME280;30146;52.268;20.944;2022-07-19T01:12:29;100863.27;;;20.06;55.46
44441;BME280;30146;52.268;20.944;2022-07-19T01:15:01;100861.55;;;20.06;55.55
44441;BME280;30146;52.268;20.944;2022-07-19T01:17:32;100859.14;;;20.06;55.63
44441;BME280;30146;52.268;20.944;2022-07-19T01:20:05;100864.21;;;20.04;55.82
44441;BME280;30146;52.268;20.944;2022-07-19T01:22:37;100866.19;;;20.03;55.78
44441;BME280;30146;52.268;20.944;2022-07-19T01:25:10;100866.63;;;20.00;55.74
44441;BME280;30146;52.268;20.944;2022-07-19T01:27:42;100867.26;;;19.98;55.87
44441;BME280;30146;52.268;20.944;2022-07-19T01:30:16;100864.36;;;19.96;55.98
44441;BME280;30146;52.268;20.944;2022-07-19T01:32:48;100862.02;;;19.95;55.90
44441;BME280;30146;52.268;20.944;2022-07-19T01:35:20;100861.89;;;19.93;56.18
44441;BME280;30146;52.268;20.944;2022-07-19T01:37:53;100858.31;;;19.91;56.21
44441;BME280;30146;52.268;20.944;2022-07-19T01:40:25;100861.13;;;19.90;56.25
44441;BME280;30146;52.268;20.944;2022-07-19T01:43:00;100859.07;;;19.90;56.39
44441;BME280;30146;52.268;20.944;2022-07-19T01:45:31;100856.17;;;19.88;56.44
44441;BME280;30146;52.268;20.944;2022-07-19T01:48:03;100857.13;;;19.86;56.66
44441;BME280;30146;52.268;20.944;2022-07-19T01:50:35;100859.09;;;19.85;56.66
44441;BME280;30146;52.268;20.944;2022-07-19T01:53:06;100864.00;;;19.84;56.70
44441;BME280;30146;52.268;20.944;2022-07-19T01:55:38;100863.70;;;19.82;56.84
44441;BME280;30146;52.268;20.944;2022-07-19T01:58:09;100857.85;;;19.81;56.81
44441;BME280;30146;52.268;20.944;2022-07-19T02:00:41;100858.42;;;19.80;56.94
44441;BME280;30146;52.268;20.944;2022-07-19T02:03:12;100852.54;;;19.79;56.89
44441;BME280;30146;52.268;20.944;2022-07-19T02:05:43;100855.16;;;19.79;56.92
44441;BME280;30146;52.268;20.944;2022-07-19T02:08:17;100855.17;;;19.78;56.86
44441;BME280;30146;52.268;20.944;2022-07-19T02:10:49;100854.52;;;19.77;56.94
44441;BME280;30146;52.268;20.944;2022-07-19T02:13:20;100852.18;;;19.75;56.88
44441;BME280;30146;52.268;20.944;2022-07-19T02:15:54;100850.52;;;19.73;56.97
44441;BME280;30146;52.268;20.944;2022-07-19T02:18:25;100854.86;;;19.73;56.95
44441;BME280;30146;52.268;20.944;2022-07-19T02:20:57;100855.06;;;19.72;57.10
44441;BME280;30146;52.268;20.944;2022-07-19T02:23:29;100851.48;;;19.70;57.11
44441;BME280;30146;52.268;20.944;2022-07-19T02:26:00;100851.33;;;19.70;57.13
44441;BME280;30146;52.268;20.944;2022-07-19T02:28:32;100848.95;;;19.69;57.16
44441;BME280;30146;52.268;20.944;2022-07-19T02:31:23;100850.73;;;19.68;57.13
44441;BME280;30146;52.268;20.944;2022-07-19T02:33:55;100852.14;;;19.67;57.30
44441;BME280;30146;52.268;20.944;2022-07-19T02:36:26;100854.75;;;19.67;57.33
44441;BME280;30146;52.268;20.944;2022-07-19T02:38:57;100854.58;;;19.67;57.39
44441;BME280;30146;52.268;20.944;2022-07-19T02:41:29;100846.82;;;19.65;57.50
44441;BME280;30146;52.268;20.944;2022-07-19T02:44:02;100846.17;;;19.64;57.15
44441;BME280;30146;52.268;20.944;2022-07-19T02:46:33;100844.02;;;19.61;56.82
44441;BME280;30146;52.268;20.944;2022-07-19T02:49:07;100841.84;;;19.60;56.86
44441;BME280;30146;52.268;20.944;2022-07-19T02:51:38;100842.77;;;19.58;56.91
44441;BME280;30146;52.268;20.944;2022-07-19T02:54:10;100843.02;;;19.56;57.08
44441;BME280;30146;52.268;20.944;2022-07-19T02:56:41;100842.31;;;19.56;57.10
44441;BME280;30146;52.268;20.944;2022-07-19T02:59:12;100845.27;;;19.56;57.27
44441;BME280;30146;52.268;20.944;2022-07-19T03:01:44;100846.82;;;19.56;57.37
44441;BME280;30146;52.268;20.944;2022-07-19T03:04:15;100844.41;;;19.56;57.47
44441;BME280;30146;52.268;20.944;2022-07-19T03:06:47;100847.17;;;19.56;57.59
44441;BME280;30146;52.268;20.944;2022-07-19T03:09:18;100850.23;;;19.57;57.50
44441;BME280;30146;52.268;20.944;2022-07-19T03:11:50;100854.21;;;19.58;57.43
44441;BME280;30146;52.268;20.944;2022-07-19T03:14:21;100859.79;;;19.57;57.14
44441;BME280;30146;52.268;20.944;2022-07-19T03:16:52;100865.66;;;19.58;57.17
44441;BME280;30146;52.268;20.944;2022-07-19T03:19:24;100864.31;;;19.57;57.28
44441;BME280;30146;52.268;20.944;2022-07-19T03:21:56;100863.96;;;19.57;57.33
44441;BME280;30146;52.268;20.944;2022-07-19T03:24:27;100862.30;;;19.55;57.48
44441;BME280;30146;52.268;20.944;2022-07-19T03:27:02;100859.19;;;19.55;57.46
44441;BME280;30146;52.268;20.944;2022-07-19T03:29:33;100862.14;;;19.55;57.64
44441;BME280;30146;52.268;20.944;2022-07-19T03:32:05;100864.20;;;19.55;57.66
44441;BME280;30146;52.268;20.944;2022-07-19T03:34:36;100865.39;;;19.56;57.64
44441;BME280;30146;52.268;20.944;2022-07-19T03:37:07;100863.96;;;19.57;57.75
44441;BME280;30146;52.268;20.944;2022-07-19T03:39:39;100860.66;;;19.57;57.78
44441;BME280;30146;52.268;20.944;2022-07-19T03:42:10;100859.14;;;19.56;57.66
44441;BME280;30146;52.268;20.944;2022-07-19T03:44:41;100862.42;;;19.56;57.69
44441;BME280;30146;52.268;20.944;2022-07-19T03:47:13;100862.95;;;19.56;57.63
44441;BME280;30146;52.268;20.944;2022-07-19T03:49:44;100865.73;;;19.56;57.50
44441;BME280;30146;52.268;20.944;2022-07-19T03:52:16;100870.08;;;19.56;57.54
44441;BME280;30146;52.268;20.944;2022-07-19T03:54:50;100869.91;;;19.56;57.57
44441;BME280;30146;52.268;20.944;2022-07-19T03:57:22;100866.38;;;19.57;57.53
44441;BME280;30146;52.268;20.944;2022-07-19T03:59:53;100867.55;;;19.59;57.33
44441;BME280;30146;52.268;20.944;2022-07-19T04:02:25;100866.23;;;19.61;57.32
44441;BME280;30146;52.268;20.944;2022-07-19T04:04:57;100861.31;;;19.63;57.25
44441;BME280;30146;52.268;20.944;2022-07-19T04:07:29;100860.02;;;19.65;57.33
44441;BME280;30146;52.268;20.944;2022-07-19T04:10:04;100853.20;;;19.67;57.28
44441;BME280;30146;52.268;20.944;2022-07-19T04:12:36;100852.44;;;19.68;57.16
44441;BME280;30146;52.268;20.944;2022-07-19T04:15:09;100851.49;;;19.70;57.09
44441;BME280;30146;52.268;20.944;2022-07-19T04:17:40;100852.12;;;19.72;56.89
44441;BME280;30146;52.268;20.944;2022-07-19T04:20:15;100848.06;;;19.74;57.01
44441;BME280;30146;52.268;20.944;2022-07-19T04:22:46;100845.50;;;19.77;57.01
44441;BME280;30146;52.268;20.944;2022-07-19T04:25:21;100844.48;;;19.81;57.15
44441;BME280;30146;52.268;20.944;2022-07-19T04:27:53;100841.35;;;19.86;56.92
44441;BME280;30146;52.268;20.944;2022-07-19T04:30:24;100840.77;;;19.92;56.66
44441;BME280;30146;52.268;20.944;2022-07-19T04:32:56;100837.66;;;20.00;56.91
44441;BME280;30146;52.268;20.944;2022-07-19T04:35:27;100837.14;;;20.09;56.67
44441;BME280;30146;52.268;20.944;2022-07-19T04:37:59;100840.73;;;20.18;56.78
44441;BME280;30146;52.268;20.944;2022-07-19T04:40:31;100839.14;;;20.27;56.56
44441;BME280;30146;52.268;20.944;2022-07-19T04:43:03;100839.16;;;20.35;56.61
44441;BME280;30146;52.268;20.944;2022-07-19T04:45:35;100842.20;;;20.45;56.56
44441;BME280;30146;52.268;20.944;2022-07-19T04:48:08;100844.13;;;20.53;56.50
44441;BME280;30146;52.268;20.944;2022-07-19T04:50:42;100843.52;;;20.59;56.35
44441;BME280;30146;52.268;20.944;2022-07-19T04:53:14;100844.80;;;20.63;56.28
44441;BME280;30146;52.268;20.944;2022-07-19T04:55:45;100846.75;;;20.66;56.34
44441;BME280;30146;52.268;20.944;2022-07-19T04:58:16;100848.59;;;20.67;56.37
44441;BME280;30146;52.268;20.944;2022-07-19T05:00:49;100850.19;;;20.67;56.28
44441;BME280;30146;52.268;20.944;2022-07-19T05:03:20;100854.48;;;20.67;56.31
44441;BME280;30146;52.268;20.944;2022-07-19T05:05:51;100855.36;;;20.67;56.27
44441;BME280;30146;52.268;20.944;2022-07-19T05:08:23;100858.13;;;20.67;56.37
44441;BME280;30146;52.268;20.944;2022-07-19T05:11:06;100860.71;;;20.68;56.37
44441;BME280;30146;52.268;20.944;2022-07-19T05:13:38;100856.52;;;20.69;56.56
44441;BME280;30146;52.268;20.944;2022-07-19T05:16:09;100856.64;;;20.70;56.40
44441;BME280;30146;52.268;20.944;2022-07-19T05:18:41;100855.37;;;20.71;56.36
44441;BME280;30146;52.268;20.944;2022-07-19T05:21:13;100858.45;;;20.72;56.27
44441;BME280;30146;52.268;20.944;2022-07-19T05:23:45;100855.45;;;20.73;56.19
44441;BME280;30146;52.268;20.944;2022-07-19T05:26:17;100852.48;;;20.74;56.09
44441;BME280;30146;52.268;20.944;2022-07-19T05:28:56;100850.00;;;20.75;56.01
44441;BME280;30146;52.268;20.944;2022-07-19T05:31:27;100847.70;;;20.75;55.92
44441;BME280;30146;52.268;20.944;2022-07-19T05:33:59;100844.54;;;20.76;55.97
44441;BME280;30146;52.268;20.944;2022-07-19T05:36:34;100839.81;;;20.78;56.15
44441;BME280;30146;52.268;20.944;2022-07-19T05:39:09;100840.56;;;20.80;55.91
44441;BME280;30146;52.268;20.944;2022-07-19T05:41:40;100841.21;;;20.81;56.03
44441;BME280;30146;52.268;20.944;2022-07-19T05:44:12;100848.72;;;20.84;56.04
44441;BME280;30146;52.268;20.944;2022-07-19T05:46:47;100845.13;;;20.87;56.20
44441;BME280;30146;52.268;20.944;2022-07-19T05:49:28;100842.29;;;20.88;56.07
44441;BME280;30146;52.268;20.944;2022-07-19T05:52:04;100847.13;;;20.89;55.93
44441;BME280;30146;52.268;20.944;2022-07-19T05:54:36;100848.11;;;20.90;56.12
44441;BME280;30146;52.268;20.944;2022-07-19T05:57:07;100844.09;;;20.90;56.23
44441;BME280;30146;52.268;20.944;2022-07-19T05:59:39;100845.21;;;20.93;56.12
44441;BME280;30146;52.268;20.944;2022-07-19T06:02:11;100846.16;;;20.94;56.37
44441;BME280;30146;52.268;20.944;2022-07-19T06:04:45;100850.58;;;20.97;56.47
44441;BME280;30146;52.268;20.944;2022-07-19T06:07:16;100855.36;;;20.99;56.32
44441;BME280;30146;52.268;20.944;2022-07-19T06:09:48;100863.74;;;21.02;56.30
44441;BME280;30146;52.268;20.944;2022-07-19T06:12:19;100870.16;;;21.06;56.31
44441;BME280;30146;52.268;20.944;2022-07-19T06:14:50;100872.95;;;21.10;56.31
44441;BME280;30146;52.268;20.944;2022-07-19T06:17:22;100872.50;;;21.16;56.30
44441;BME280;30146;52.268;20.944;2022-07-19T06:19:53;100877.19;;;21.24;56.24
44441;BME280;30146;52.268;20.944;2022-07-19T06:22:24;100874.37;;;21.32;56.05
44441;BME280;30146;52.268;20.944;2022-07-19T06:24:56;100874.02;;;21.44;56.06
44441;BME280;30146;52.268;20.944;2022-07-19T06:27:27;100871.98;;;21.54;55.91
44441;BME280;30146;52.268;20.944;2022-07-19T06:29:59;100871.13;;;21.65;56.12
44441;BME280;30146;52.268;20.944;2022-07-19T06:32:32;100867.54;;;21.75;56.10
44441;BME280;30146;52.268;20.944;2022-07-19T06:35:06;100865.19;;;21.84;56.12
44441;BME280;30146;52.268;20.944;2022-07-19T06:37:37;100865.60;;;21.94;56.55
44441;BME280;30146;52.268;20.944;2022-07-19T06:40:10;100863.17;;;22.00;56.52
44441;BME280;30146;52.268;20.944;2022-07-19T06:42:44;100860.61;;;22.06;56.56
44441;BME280;30146;52.268;20.944;2022-07-19T06:45:15;100864.30;;;22.10;56.49
44441;BME280;30146;52.268;20.944;2022-07-19T06:47:47;100866.42;;;22.12;56.28
44441;BME280;30146;52.268;20.944;2022-07-19T06:50:23;100868.64;;;22.13;56.40
44441;BME280;30146;52.268;20.944;2022-07-19T06:53:25;100872.77;;;22.14;56.03
44441;BME280;30146;52.268;20.944;2022-07-19T06:55:57;100873.13;;;22.15;56.08
44441;BME280;30146;52.268;20.944;2022-07-19T06:58:28;100873.13;;;22.14;56.01
44441;BME280;30146;52.268;20.944;2022-07-19T07:01:10;100876.61;;;22.14;56.00
44441;BME280;30146;52.268;20.944;2022-07-19T07:03:42;100879.77;;;22.14;55.85
44441;BME280;30146;52.268;20.944;2022-07-19T07:06:13;100876.00;;;22.12;55.99
44441;BME280;30146;52.268;20.944;2022-07-19T07:08:44;100874.09;;;22.12;55.97
44441;BME280;30146;52.268;20.944;2022-07-19T07:11:16;100870.77;;;22.13;55.74
44441;BME280;30146;52.268;20.944;2022-07-19T07:13:47;100873.27;;;22.15;56.13
44441;BME280;30146;52.268;20.944;2022-07-19T07:16:19;100872.64;;;22.17;56.13
44441;BME280;30146;52.268;20.944;2022-07-19T07:18:51;100867.72;;;22.18;56.05
44441;BME280;30146;52.268;20.944;2022-07-19T07:21:23;100870.16;;;22.18;55.18
44441;BME280;30146;52.268;20.944;2022-07-19T07:23:55;100865.17;;;22.17;55.02
44441;BME280;30146;52.268;20.944;2022-07-19T07:26:26;100863.56;;;22.17;54.93
44441;BME280;30146;52.268;20.944;2022-07-19T07:28:57;100864.33;;;22.20;54.73
44441;BME280;30146;52.268;20.944;2022-07-19T07:31:29;100862.07;;;22.23;54.76
44441;BME280;30146;52.268;20.944;2022-07-19T07:34:00;100862.84;;;22.29;54.98
44441;BME280;30146;52.268;20.944;2022-07-19T07:36:44;100860.46;;;22.38;54.82
44441;BME280;30146;52.268;20.944;2022-07-19T07:39:15;100860.84;;;22.48;54.98
44441;BME280;30146;52.268;20.944;2022-07-19T07:41:58;100856.36;;;22.61;55.17
44441;BME280;30146;52.268;20.944;2022-07-19T07:44:47;100854.88;;;22.73;54.85
44441;BME280;30146;52.268;20.944;2022-07-19T07:47:19;100853.86;;;22.82;54.63
44441;BME280;30146;52.268;20.944;2022-07-19T07:49:52;100853.47;;;22.89;54.23
44441;BME280;30146;52.268;20.944;2022-07-19T07:52:24;100862.50;;;22.97;54.25
44441;BME280;30146;52.268;20.944;2022-07-19T07:54:56;100863.84;;;23.01;54.03
44441;BME280;30146;52.268;20.944;2022-07-19T07:57:47;100863.27;;;23.02;53.48
44441;BME280;30146;52.268;20.944;2022-07-19T08:00:19;100862.90;;;23.02;53.24
44441;BME280;30146;52.268;20.944;2022-07-19T08:02:51;100866.58;;;23.02;52.96
44441;BME280;30146;52.268;20.944;2022-07-19T08:05:24;100868.09;;;23.03;52.99
44441;BME280;30146;52.268;20.944;2022-07-19T08:07:56;100866.85;;;23.04;52.88
44441;BME280;30146;52.268;20.944;2022-07-19T08:10:29;100869.57;;;23.05;52.62
44441;BME280;30146;52.268;20.944;2022-07-19T08:13:03;100868.42;;;23.07;52.63
44441;BME280;30146;52.268;20.944;2022-07-19T08:15:54;100873.23;;;23.09;52.59
44441;BME280;30146;52.268;20.944;2022-07-19T08:18:28;100873.42;;;23.12;52.42
44441;BME280;30146;52.268;20.944;2022-07-19T08:21:08;100872.84;;;23.16;52.45
44441;BME280;30146;52.268;20.944;2022-07-19T08:23:49;100872.22;;;23.24;52.91
44441;BME280;30146;52.268;20.944;2022-07-19T08:26:21;100873.52;;;23.33;52.32
44441;BME280;30146;52.268;20.944;2022-07-19T08:28:53;100875.69;;;23.44;52.35
44441;BME280;30146;52.268;20.944;2022-07-19T08:31:27;100876.40;;;23.56;52.50
44441;BME280;30146;52.268;20.944;2022-07-19T08:33:59;100874.77;;;23.67;52.47
44441;BME280;30146;52.268;20.944;2022-07-19T08:36:31;100872.11;;;23.80;52.65
44441;BME280;30146;52.268;20.944;2022-07-19T08:39:02;100871.19;;;23.94;52.24
44441;BME280;30146;52.268;20.944;2022-07-19T08:41:35;100867.95;;;24.08;52.15
44441;BME280;30146;52.268;20.944;2022-07-19T08:44:12;100862.49;;;24.24;52.02
44441;BME280;30146;52.268;20.944;2022-07-19T08:46:44;100861.22;;;24.43;51.48
44441;BME280;30146;52.268;20.944;2022-07-19T08:49:16;100855.90;;;24.71;51.27
44441;BME280;30146;52.268;20.944;2022-07-19T08:51:51;100855.30;;;25.06;51.30
44441;BME280;30146;52.268;20.944;2022-07-19T08:54:25;100855.48;;;25.43;50.89
44441;BME280;30146;52.268;20.944;2022-07-19T08:57:04;100849.20;;;25.80;50.63
44441;BME280;30146;52.268;20.944;2022-07-19T09:00:09;100845.41;;;26.25;50.17
44441;BME280;30146;52.268;20.944;2022-07-19T09:02:54;100840.77;;;26.65;50.21
44441;BME280;30146;52.268;20.944;2022-07-19T09:05:27;100843.27;;;27.05;49.50
44441;BME280;30146;52.268;20.944;2022-07-19T09:08:08;100843.26;;;27.38;48.98
44441;BME280;30146;52.268;20.944;2022-07-19T09:10:43;100841.63;;;27.70;47.75
44441;BME280;30146;52.268;20.944;2022-07-19T09:13:16;100834.75;;;28.04;47.08
44441;BME280;30146;52.268;20.944;2022-07-19T09:19:37;100836.64;;;28.57;45.55
44441;BME280;30146;52.268;20.944;2022-07-19T09:22:12;100837.16;;;28.74;44.99
44441;BME280;30146;52.268;20.944;2022-07-19T09:24:45;100838.42;;;28.84;44.37
44441;BME280;30146;52.268;20.944;2022-07-19T09:27:22;100835.10;;;28.97;43.98
44441;BME280;30146;52.268;20.944;2022-07-19T09:29:56;100835.71;;;29.12;43.20
44441;BME280;30146;52.268;20.944;2022-07-19T09:32:28;100835.13;;;29.24;42.89
44441;BME280;30146;52.268;20.944;2022-07-19T09:35:03;100830.55;;;29.33;42.70
44441;BME280;30146;52.268;20.944;2022-07-19T09:37:35;100833.88;;;29.46;42.76
44441;BME280;30146;52.268;20.944;2022-07-19T09:40:10;100837.42;;;29.61;42.91
44441;BME280;30146;52.268;20.944;2022-07-19T09:42:45;100834.30;;;29.74;42.19
44441;BME280;30146;52.268;20.944;2022-07-19T09:45:17;100833.58;;;29.84;42.03
44441;BME280;30146;52.268;20.944;2022-07-19T09:47:53;100836.77;;;29.97;41.74
44441;BME280;30146;52.268;20.944;2022-07-19T09:50:26;100836.77;;;30.07;41.73
44441;BME280;30146;52.268;20.944;2022-07-19T09:53:01;100829.20;;;30.18;41.57
44441;BME280;30146;52.268;20.944;2022-07-19T09:55:34;100831.29;;;30.29;41.30
44441;BME280;30146;52.268;20.944;2022-07-19T09:58:06;100834.82;;;30.33;40.34
44441;BME280;30146;52.268;20.944;2022-07-19T10:00:38;100827.42;;;30.33;39.40
44441;BME280;30146;52.268;20.944;2022-07-19T10:03:11;100824.58;;;30.34;39.56
44441;BME280;30146;52.268;20.944;2022-07-19T10:05:45;100825.22;;;30.34;39.27
44441;BME280;30146;52.268;20.944;2022-07-19T10:08:17;100818.27;;;30.35;39.12
44441;BME280;30146;52.268;20.944;2022-07-19T10:10:49;100817.28;;;30.36;38.71
44441;BME280;30146;52.268;20.944;2022-07-19T10:13:21;100811.25;;;30.37;38.95
44441;BME280;30146;52.268;20.944;2022-07-19T10:15:56;100811.92;;;30.39;39.37
44441;BME280;30146;52.268;20.944;2022-07-19T10:18:44;100808.71;;;30.41;38.85
44441;BME280;30146;52.268;20.944;2022-07-19T10:21:23;100808.89;;;30.45;38.49
44441;BME280;30146;52.268;20.944;2022-07-19T10:23:57;100813.52;;;30.47;38.30
44441;BME280;30146;52.268;20.944;2022-07-19T10:26:36;100812.74;;;30.48;38.29
44441;BME280;30146;52.268;20.944;2022-07-19T10:29:12;100808.88;;;30.48;38.18
44441;BME280;30146;52.268;20.944;2022-07-19T10:32:04;100805.40;;;30.47;37.81
44441;BME280;30146;52.268;20.944;2022-07-19T10:34:37;100808.15;;;30.48;37.85
44441;BME280;30146;52.268;20.944;2022-07-19T10:37:09;100798.80;;;30.48;38.02
44441;BME280;30146;52.268;20.944;2022-07-19T10:39:42;100797.37;;;30.46;37.45
44441;BME280;30146;52.268;20.944;2022-07-19T10:42:19;100793.23;;;30.41;37.46
44441;BME280;30146;52.268;20.944;2022-07-19T10:45:13;100798.05;;;30.36;37.42
44441;BME280;30146;52.268;20.944;2022-07-19T10:51:00;100796.63;;;30.17;37.30
44441;BME280;30146;52.268;20.944;2022-07-19T10:53:55;100795.23;;;30.07;37.28
44441;BME280;30146;52.268;20.944;2022-07-19T10:56:35;100792.48;;;30.02;37.90
44441;BME280;30146;52.268;20.944;2022-07-19T10:59:32;100790.03;;;29.98;37.58
44441;BME280;30146;52.268;20.944;2022-07-19T11:02:04;100787.94;;;29.95;37.71
44441;BME280;30146;52.268;20.944;2022-07-19T11:04:56;100783.83;;;29.91;37.51
44441;BME280;30146;52.268;20.944;2022-07-19T11:07:32;100783.21;;;29.88;37.76
44441;BME280;30146;52.268;20.944;2022-07-19T11:10:05;100782.41;;;29.85;38.10
44441;BME280;30146;52.268;20.944;2022-07-19T11:12:37;100781.45;;;29.82;37.90
44441;BME280;30146;52.268;20.944;2022-07-19T11:15:11;100778.75;;;29.79;37.87
44441;BME280;30146;52.268;20.944;2022-07-19T11:17:54;100781.95;;;29.76;37.93
44441;BME280;30146;52.268;20.944;2022-07-19T11:20:28;100776.05;;;29.75;37.73
44441;BME280;30146;52.268;20.944;2022-07-19T11:23:05;100770.73;;;29.73;37.96
44441;BME280;30146;52.268;20.944;2022-07-19T11:25:38;100771.37;;;29.69;37.61
44441;BME280;30146;52.268;20.944;2022-07-19T11:28:22;100771.55;;;29.63;37.35
44441;BME280;30146;52.268;20.944;2022-07-19T11:30:54;100768.80;;;29.56;37.35
44441;BME280;30146;52.268;20.944;2022-07-19T11:33:27;100765.05;;;29.52;37.45
44441;BME280;30146;52.268;20.944;2022-07-19T11:35:59;100764.57;;;29.49;37.50
44441;BME280;30146;52.268;20.944;2022-07-19T11:38:43;100758.30;;;29.49;37.66
44441;BME280;30146;52.268;20.944;2022-07-19T11:41:22;100760.00;;;29.47;37.49
44441;BME280;30146;52.268;20.944;2022-07-19T11:43:56;100752.20;;;29.46;37.58
44441;BME280;30146;52.268;20.944;2022-07-19T11:46:29;100750.52;;;29.47;37.67
44441;BME280;30146;52.268;20.944;2022-07-19T11:49:04;100751.89;;;29.45;37.08
44441;BME280;30146;52.268;20.944;2022-07-19T11:51:37;100745.81;;;29.40;36.85
44441;BME280;30146;52.268;20.944;2022-07-19T11:54:09;100747.55;;;29.34;37.01
44441;BME280;30146;52.268;20.944;2022-07-19T11:56:44;100747.09;;;29.30;37.16
44441;BME280;30146;52.268;20.944;2022-07-19T11:59:16;100742.34;;;29.27;37.30
44441;BME280;30146;52.268;20.944;2022-07-19T12:01:47;100740.29;;;29.21;37.12
44441;BME280;30146;52.268;20.944;2022-07-19T12:04:19;100738.30;;;29.15;37.54
44441;BME280;30146;52.268;20.944;2022-07-19T12:06:54;100731.30;;;29.15;37.47
44441;BME280;30146;52.268;20.944;2022-07-19T12:09:31;100728.40;;;29.16;37.20
44441;BME280;30146;52.268;20.944;2022-07-19T12:12:14;100733.40;;;29.17;37.23
44441;BME280;30146;52.268;20.944;2022-07-19T12:14:46;100734.66;;;29.19;37.21
44441;BME280;30146;52.268;20.944;2022-07-19T12:17:19;100731.85;;;29.22;37.02
44441;BME280;30146;52.268;20.944;2022-07-19T12:20:08;100727.83;;;29.23;37.18
44441;BME280;30146;52.268;20.944;2022-07-19T12:23:14;100729.48;;;29.26;36.85
44441;BME280;30146;52.268;20.944;2022-07-19T12:25:46;100731.95;;;29.31;36.74
44441;BME280;30146;52.268;20.944;2022-07-19T12:28:26;100730.76;;;29.34;36.67
44441;BME280;30146;52.268;20.944;2022-07-19T12:31:04;100720.95;;;29.40;36.60
44441;BME280;30146;52.268;20.944;2022-07-19T12:33:45;100719.64;;;29.46;36.56
44441;BME280;30146;52.268;20.944;2022-07-19T12:36:33;100716.65;;;29.48;36.63
44441;BME280;30146;52.268;20.944;2022-07-19T12:39:15;100712.98;;;29.45;36.58
44441;BME280;30146;52.268;20.944;2022-07-19T12:41:59;100706.08;;;29.44;36.43
44441;BME280;30146;52.268;20.944;2022-07-19T12:44:33;100709.95;;;29.41;36.25
44441;BME280;30146;52.268;20.944;2022-07-19T12:47:04;100705.66;;;29.42;36.21
44441;BME280;30146;52.268;20.944;2022-07-19T12:49:57;100702.58;;;29.45;36.12
44441;BME280;30146;52.268;20.944;2022-07-19T12:52:40;100700.90;;;29.46;36.06
44441;BME280;30146;52.268;20.944;2022-07-19T12:55:12;100698.64;;;29.46;36.00
44441;BME280;30146;52.268;20.944;2022-07-19T12:57:49;100699.39;;;29.45;35.72
44441;BME280;30146;52.268;20.944;2022-07-19T13:00:25;100695.96;;;29.40;35.55
44441;BME280;30146;52.268;20.944;2022-07-19T13:02:58;100696.36;;;29.31;35.52
44441;BME280;30146;52.268;20.944;2022-07-19T13:05:30;100694.14;;;29.24;35.61
44441;BME280;30146;52.268;20.944;2022-07-19T13:08:02;100689.27;;;29.19;35.57
44441;BME280;30146;52.268;20.944;2022-07-19T13:10:37;100690.02;;;29.16;35.61
44441;BME280;30146;52.268;20.944;2022-07-19T13:13:10;100688.14;;;29.15;35.92
44441;BME280;30146;52.268;20.944;2022-07-19T13:15:41;100687.61;;;29.13;35.88
44441;BME280;30146;52.268;20.944;2022-07-19T13:18:13;100692.95;;;29.10;35.74
44441;BME280;30146;52.268;20.944;2022-07-19T13:20:45;100684.96;;;29.06;35.67
44441;BME280;30146;52.268;20.944;2022-07-19T13:23:18;100686.39;;;29.02;35.58